Time;durP1;ratioP1;P1;durP2;ratioP2;P2;SDS_P1;SDS_P2;PMS_P1;PMS_P2;Temp;Humidity;BMP_temperature;BMP_pressure;BME280_temperature;BME280_humidity;BME280_pressure;Samples;Min_cycle;Max_cycle;Signal;HPM_P1;HPM_P2
2021/07/04 00:01:35;;;;;;;7.92;4.53;;;;;;;22.00;66.77;99560.80;1723573;82;21582;-64
2021/07/04 00:04:04;;;;;;;6.97;4.33;;;;;;;21.92;66.92;99570.44;1729301;81;21122;-64
2021/07/04 00:06:31;;;;;;;6.17;4.15;;;;;;;21.88;66.91;99565.22;1724314;82;21098;-64
2021/07/04 00:08:59;;;;;;;5.92;4.15;;;;;;;21.79;66.96;99563.33;1722727;82;21141;-64
2021/07/04 00:11:26;;;;;;;6.33;3.83;;;;;;;21.75;67.07;99562.63;1700157;81;21560;-64
2021/07/04 00:13:54;;;;;;;5.42;3.70;;;;;;;21.79;67.14;99563.86;1722880;81;21101;-63
2021/07/04 00:16:20;;;;;;;5.87;4.22;;;;;;;21.81;67.13;99565.80;1742011;81;20909;-63
2021/07/04 00:18:47;;;;;;;6.40;4.58;;;;;;;21.84;67.09;99559.48;1732975;82;21150;-64
2021/07/04 00:21:13;;;;;;;6.70;4.22;;;;;;;21.84;67.00;99558.14;1738495;80;21659;-65
2021/07/04 00:23:40;;;;;;;5.62;3.80;;;;;;;21.85;66.96;99557.62;1736086;82;21103;-65
2021/07/04 00:26:07;;;;;;;6.67;4.22;;;;;;;21.80;66.97;99558.26;1738186;82;21063;-64
2021/07/04 00:28:35;;;;;;;5.90;3.65;;;;;;;21.74;67.07;99553.79;1735986;82;21106;-64
2021/07/04 00:31:02;;;;;;;6.12;3.77;;;;;;;21.71;67.10;99549.67;1718101;82;21110;-64
2021/07/04 00:33:28;;;;;;;5.78;4.08;;;;;;;21.70;67.17;99555.24;1738626;80;21090;-65
2021/07/04 00:35:56;;;;;;;7.72;3.80;;;;;;;21.64;67.33;99555.59;1735009;81;21078;-63
2021/07/04 00:38:22;;;;;;;6.00;4.47;;;;;;;21.59;67.52;99553.27;1730787;82;21642;-63
2021/07/04 00:40:49;;;;;;;9.10;4.50;;;;;;;21.51;67.68;99557.02;1736193;80;20984;-64
2021/07/04 00:43:16;;;;;;;6.12;3.95;;;;;;;21.45;67.92;99559.17;1738160;82;20984;-64
2021/07/04 00:45:43;;;;;;;6.28;3.87;;;;;;;21.41;68.06;99559.30;1735469;80;21063;-64
2021/07/04 00:48:10;;;;;;;5.83;4.00;;;;;;;21.42;68.19;99564.97;1732243;82;21121;-64
2021/07/04 00:50:38;;;;;;;6.55;4.58;;;;;;;21.44;68.25;99565.05;1740916;80;21043;-64
2021/07/04 00:53:05;;;;;;;6.03;4.00;;;;;;;21.49;68.31;99565.78;1735749;82;21707;-64
2021/07/04 00:55:35;;;;;;;6.08;3.95;;;;;;;21.54;68.22;99570.50;1735988;81;21141;-64
2021/07/04 00:58:04;;;;;;;5.53;3.60;;;;;;;21.60;68.00;99573.14;1734883;82;21550;-63
2021/07/04 01:00:34;;;;;;;7.97;4.53;;;;;;;21.61;67.72;99569.94;1736928;80;21645;-64
2021/07/04 01:03:01;;;;;;;7.80;4.37;;;;;;;21.57;67.76;99570.05;1738208;80;21690;-63
2021/07/04 01:05:34;;;;;;;7.33;4.28;;;;;;;21.60;67.88;99568.28;1736972;81;21106;-65
2021/07/04 01:08:03;;;;;;;8.33;4.28;;;;;;;21.67;67.80;99573.91;1720833;82;21107;-64
2021/07/04 01:10:31;;;;;;;8.25;4.85;;;;;;;21.68;67.65;99572.05;1724647;80;21086;-64
2021/07/04 01:13:00;;;;;;;6.67;4.40;;;;;;;21.65;67.66;99570.63;1739253;81;21071;-64
2021/07/04 01:15:28;;;;;;;7.70;4.40;;;;;;;21.59;67.72;99570.14;1721141;82;21058;-64
2021/07/04 01:17:58;;;;;;;8.28;4.45;;;;;;;21.48;68.00;99573.49;1741086;80;21077;-64
2021/07/04 01:20:26;;;;;;;8.55;4.25;;;;;;;21.38;68.24;99572.58;1738429;80;21090;-64
2021/07/04 01:23:04;;;;;;;6.72;4.40;;;;;;;21.37;68.38;99568.78;1738822;82;21516;-63
2021/07/04 01:25:32;;;;;;;6.58;4.37;;;;;;;21.40;68.36;99561.17;1730397;80;21087;-64
2021/07/04 01:27:59;;;;;;;6.85;4.25;;;;;;;21.34;68.47;99562.83;1738587;80;21196;-64
2021/07/04 01:30:27;;;;;;;7.30;4.87;;;;;;;21.26;68.69;99561.73;1733988;80;21065;-64
2021/07/04 01:32:53;;;;;;;6.30;4.55;;;;;;;21.19;68.90;99559.61;1737840;80;21082;-64
2021/07/04 01:35:20;;;;;;;7.42;4.22;;;;;;;21.13;69.11;99553.76;1740066;80;21040;-65
2021/07/04 01:37:47;;;;;;;6.08;4.08;;;;;;;21.05;69.45;99546.81;1737180;80;21531;-65
2021/07/04 01:40:14;;;;;;;6.80;4.55;;;;;;;21.03;69.53;99546.21;1696540;82;21055;-64
2021/07/04 01:42:43;;;;;;;6.75;4.70;;;;;;;21.03;69.63;99546.70;1738267;81;21071;-65
2021/07/04 01:45:11;;;;;;;6.35;4.35;;;;;;;20.99;69.75;99546.31;1737840;80;21123;-64
2021/07/04 01:47:38;;;;;;;6.92;4.55;;;;;;;21.02;69.83;99549.09;1737717;81;21085;-64
2021/07/04 01:50:09;;;;;;;8.05;4.60;;;;;;;21.04;69.77;99541.67;1738830;80;21103;-64
2021/07/04 01:52:36;;;;;;;6.45;4.42;;;;;;;21.02;69.63;99543.74;1734780;80;21118;-64
2021/07/04 01:55:08;;;;;;;7.30;4.55;;;;;;;20.96;69.68;99547.57;1705657;82;21623;-64
2021/07/04 01:57:35;;;;;;;7.75;4.75;;;;;;;20.90;69.71;99543.06;1698302;80;21569;-64
2021/07/04 02:00:12;;;;;;;7.25;5.08;;;;;;;20.85;69.87;99548.22;1718377;80;21098;-64
2021/07/04 02:02:46;;;;;;;6.90;4.35;;;;;;;20.88;69.86;99545.13;1751750;80;22248;-65
2021/07/04 02:05:14;;;;;;;6.95;4.80;;;;;;;20.95;69.70;99549.93;1742088;80;21072;-64
2021/07/04 02:07:42;;;;;;;8.50;5.47;;;;;;;20.99;69.59;99549.52;1732982;80;21079;-64
2021/07/04 02:10:25;;;;;;;8.23;5.08;;;;;;;21.01;69.56;99560.81;1742876;82;21051;-65
2021/07/04 02:12:52;;;;;;;8.55;5.17;;;;;;;20.97;69.62;99558.55;1709165;81;21185;-65
2021/07/04 02:15:24;;;;;;;7.78;4.53;;;;;;;20.93;69.82;99565.86;1735555;82;21344;-65
2021/07/04 02:17:56;;;;;;;6.92;4.87;;;;;;;20.97;70.03;99567.10;1735566;80;21105;-65
2021/07/04 02:20:44;;;;;;;7.83;5.47;;;;;;;21.09;70.05;99574.77;1723003;82;21103;-65
2021/07/04 02:23:30;;;;;;;8.75;5.35;;;;;;;21.17;69.86;99575.05;1734324;82;21098;-64
2021/07/04 02:25:59;;;;;;;6.65;4.90;;;;;;;21.25;69.61;99578.84;1736543;80;21075;-63
2021/07/04 02:28:29;;;;;;;7.12;4.72;;;;;;;21.26;69.32;99589.82;1735187;80;21040;-64
2021/07/04 02:30:57;;;;;;;7.33;4.87;;;;;;;21.21;69.26;99585.62;1732171;81;21083;-64
2021/07/04 02:33:24;;;;;;;7.20;4.75;;;;;;;21.13;69.35;99587.20;1718513;82;21633;-64
2021/07/04 02:35:55;;;;;;;7.42;5.17;;;;;;;21.08;69.52;99595.03;1721300;81;21162;-64
2021/07/04 02:38:23;;;;;;;7.80;4.70;;;;;;;21.12;69.49;99601.09;1721284;82;21136;-64
2021/07/04 02:40:52;;;;;;;6.37;4.28;;;;;;;21.20;69.31;99611.25;1737351;80;21051;-64
2021/07/04 02:43:25;;;;;;;7.00;4.90;;;;;;;21.22;69.30;99611.36;1735420;82;21079;-64
2021/07/04 02:45:51;;;;;;;7.05;4.95;;;;;;;21.22;69.28;99613.22;1722491;81;21494;-64
2021/07/04 02:48:18;;;;;;;8.00;5.20;;;;;;;21.18;69.47;99611.45;1731107;81;21024;-64
2021/07/04 02:50:50;;;;;;;10.82;6.20;;;;;;;21.10;69.75;99611.72;1737531;81;21008;-64
2021/07/04 02:53:19;;;;;;;7.95;5.35;;;;;;;21.12;69.91;99616.33;1718577;82;21118;-63
2021/07/04 02:55:48;;;;;;;7.42;5.22;;;;;;;21.23;69.66;99619.70;1735456;80;21051;-64
2021/07/04 02:58:16;;;;;;;7.50;4.85;;;;;;;21.27;69.50;99620.09;1728592;80;21086;-64
2021/07/04 03:00:45;;;;;;;6.95;5.05;;;;;;;21.26;69.54;99618.44;1734362;80;21047;-64
2021/07/04 03:03:12;;;;;;;8.25;5.40;;;;;;;21.24;69.52;99624.52;1736387;81;21694;-64
2021/07/04 03:05:39;;;;;;;7.72;5.05;;;;;;;21.19;69.70;99631.02;1733472;80;21680;-64
2021/07/04 03:08:09;;;;;;;9.70;5.33;;;;;;;21.13;69.87;99637.52;1732771;80;21126;-63
2021/07/04 03:10:36;;;;;;;7.12;4.90;;;;;;;21.12;69.73;99634.53;1720064;81;21094;-58
2021/07/04 03:13:03;;;;;;;8.05;5.53;;;;;;;21.13;69.81;99637.52;1738611;80;21633;-61
2021/07/04 03:15:32;;;;;;;6.78;4.83;;;;;;;21.12;69.97;99633.19;1735165;80;21952;-60
2021/07/04 03:18:00;;;;;;;7.42;5.17;;;;;;;21.15;70.07;99638.66;1736245;80;21613;-59
2021/07/04 03:20:29;;;;;;;7.87;5.30;;;;;;;21.15;70.04;99642.66;1733461;82;21125;-64
2021/07/04 03:22:57;;;;;;;11.38;6.62;;;;;;;21.14;70.04;99639.14;1717309;80;21146;-64
2021/07/04 03:25:26;;;;;;;7.25;5.30;;;;;;;21.18;70.06;99642.22;1731541;82;21110;-64
2021/07/04 03:27:52;;;;;;;8.63;5.67;;;;;;;21.26;69.92;99639.84;1731598;82;21059;-64
2021/07/04 03:30:21;;;;;;;7.47;5.42;;;;;;;21.30;69.80;99637.88;1734283;80;21050;-64
2021/07/04 03:32:50;;;;;;;8.43;5.87;;;;;;;21.36;69.69;99638.06;1716381;82;21058;-63
2021/07/04 03:35:19;;;;;;;8.30;5.03;;;;;;;21.38;69.65;99654.20;1720119;81;21031;-65
2021/07/04 03:37:47;;;;;;;7.87;5.62;;;;;;;21.38;69.65;99652.05;1729435;82;21008;-64
2021/07/04 03:40:18;;;;;;;8.15;5.55;;;;;;;21.37;69.65;99655.25;1696647;84;21469;-64
2021/07/04 03:42:49;;;;;;;9.10;5.75;;;;;;;21.42;69.57;99652.76;1715311;82;21523;-64
2021/07/04 03:45:18;;;;;;;8.30;5.37;;;;;;;21.50;69.38;99657.06;1727407;80;21071;-64
2021/07/04 03:47:46;;;;;;;7.65;5.50;;;;;;;21.52;69.22;99656.36;1731996;82;21043;-65
2021/07/04 03:50:14;;;;;;;8.68;5.65;;;;;;;21.50;69.27;99661.08;1720227;82;21110;-64
2021/07/04 03:52:43;;;;;;;9.55;6.00;;;;;;;21.48;69.37;99667.17;1728378;82;21055;-63
2021/07/04 03:55:14;;;;;;;11.80;6.08;;;;;;;21.45;69.58;99671.08;1733681;80;21079;-65
2021/07/04 03:57:42;;;;;;;7.35;5.83;;;;;;;21.47;69.53;99662.87;1741381;80;21082;-65
2021/07/04 04:00:12;;;;;;;7.70;5.60;;;;;;;21.54;69.63;99668.20;1739345;81;21145;-65
2021/07/04 04:02:45;;;;;;;8.58;5.85;;;;;;;21.61;69.53;99666.30;1750103;81;21047;-61
2021/07/04 04:05:13;;;;;;;9.40;5.55;;;;;;;21.73;69.40;99663.78;1740670;80;21170;-61
2021/07/04 04:07:44;;;;;;;9.40;6.65;;;;;;;21.86;69.08;99665.05;1738076;81;21075;-61
2021/07/04 04:10:13;;;;;;;10.10;5.28;;;;;;;21.96;68.80;99661.91;1736818;80;21059;-59
2021/07/04 04:12:42;;;;;;;8.45;5.67;;;;;;;22.04;68.52;99661.62;1733433;80;21024;-61
2021/07/04 04:15:10;;;;;;;6.97;5.40;;;;;;;22.04;68.32;99657.11;1727780;81;21553;-61
2021/07/04 04:17:38;;;;;;;7.70;5.60;;;;;;;22.09;68.27;99659.16;1734538;82;21511;-61
2021/07/04 04:20:06;;;;;;;6.60;5.12;;;;;;;22.13;68.40;99660.88;1694213;82;21111;-61
2021/07/04 04:22:34;;;;;;;8.60;5.85;;;;;;;22.19;68.33;99658.66;1726796;81;21342;-61
2021/07/04 04:25:01;;;;;;;7.55;5.60;;;;;;;22.31;67.86;99664.16;1732111;80;21568;-60
2021/07/04 04:27:27;;;;;;;8.10;5.87;;;;;;;22.38;67.78;99667.11;1735167;80;21078;-60
2021/07/04 04:29:55;;;;;;;8.93;5.95;;;;;;;22.43;67.39;99667.27;1728942;80;21964;-59
2021/07/04 04:32:24;;;;;;;7.10;5.58;;;;;;;22.44;67.37;99666.25;1732514;80;21701;-59
2021/07/04 04:34:54;;;;;;;9.35;6.20;;;;;;;22.44;67.46;99668.92;1728494;80;21122;-59
2021/07/04 04:37:23;;;;;;;9.28;5.50;;;;;;;22.48;67.47;99663.95;1737036;80;21585;-63
2021/07/04 04:39:50;;;;;;;7.75;5.30;;;;;;;22.57;67.32;99674.69;1728592;80;21088;-66
2021/07/04 04:42:17;;;;;;;10.45;6.28;;;;;;;22.66;67.21;99670.39;1724724;80;21154;-64
2021/07/04 04:44:43;;;;;;;9.08;6.35;;;;;;;22.79;67.16;99667.59;1755583;79;21130;-65
2021/07/04 04:47:11;;;;;;;12.35;6.42;;;;;;;22.91;66.80;99669.03;1736837;80;21114;-64
2021/07/04 04:49:37;;;;;;;7.33;5.53;;;;;;;22.98;66.62;99665.25;1732762;80;21051;-64
2021/07/04 04:52:06;;;;;;;10.82;6.45;;;;;;;23.00;66.46;99663.16;1713289;82;21114;-66
2021/07/04 04:54:34;;;;;;;8.98;5.95;;;;;;;23.02;66.77;99670.98;1724065;81;21380;-67
2021/07/04 04:57:07;;;;;;;10.55;6.78;;;;;;;23.09;66.43;99659.69;1728178;81;21561;-70
2021/07/04 04:59:36;;;;;;;8.40;6.70;;;;;;;23.16;66.19;99656.41;1733475;82;21051;-65
2021/07/04 05:02:03;;;;;;;9.30;6.40;;;;;;;23.23;66.20;99652.84;1720766;80;21075;-66
2021/07/04 05:04:29;;;;;;;8.45;6.87;;;;;;;23.25;65.97;99652.08;1729027;82;21113;-67
2021/07/04 05:06:56;;;;;;;10.18;7.08;;;;;;;23.26;66.10;99653.20;1734424;81;21568;-67
2021/07/04 05:09:24;;;;;;;9.10;6.37;;;;;;;23.30;66.03;99657.59;1714475;80;21116;-66
2021/07/04 05:11:51;;;;;;;8.55;6.20;;;;;;;23.35;65.94;99659.09;1733195;80;22507;-66
2021/07/04 05:14:18;;;;;;;9.60;6.75;;;;;;;23.41;66.11;99654.17;1735242;80;21021;-66
2021/07/04 05:16:45;;;;;;;8.35;6.35;;;;;;;23.45;65.93;99661.25;1730694;80;21043;-67
2021/07/04 05:19:12;;;;;;;9.60;6.90;;;;;;;23.47;66.07;99661.34;1726134;81;21118;-67
2021/07/04 05:21:41;;;;;;;8.93;6.62;;;;;;;23.49;66.12;99655.21;1733332;81;21059;-67
2021/07/04 05:24:08;;;;;;;9.13;7.03;;;;;;;23.54;66.27;99663.94;1704520;81;21115;-67
2021/07/04 05:26:35;;;;;;;9.50;6.67;;;;;;;23.64;66.37;99658.04;1724752;81;21083;-66
2021/07/04 05:29:02;;;;;;;10.00;6.53;;;;;;;23.80;66.10;99663.30;1747679;80;21603;-66
2021/07/04 05:31:29;;;;;;;11.63;7.80;;;;;;;23.91;65.57;99657.99;1735252;80;21130;-66
2021/07/04 05:33:56;;;;;;;9.98;7.08;;;;;;;24.04;65.50;99658.84;1761318;79;21118;-67
2021/07/04 05:36:23;;;;;;;11.08;6.80;;;;;;;24.12;65.10;99650.45;1731070;81;21721;-67
2021/07/04 05:38:49;;;;;;;9.23;7.30;;;;;;;24.17;65.00;99656.48;1733001;82;21078;-68
2021/07/04 05:41:16;;;;;;;11.97;7.40;;;;;;;24.22;64.84;99653.93;1732167;80;21083;-66
2021/07/04 05:43:44;;;;;;;9.08;7.22;;;;;;;24.27;64.72;99652.18;1737053;80;21062;-68
2021/07/04 05:46:11;;;;;;;10.63;6.97;;;;;;;24.37;64.79;99656.99;1733699;82;21059;-67
2021/07/04 05:48:39;;;;;;;8.85;7.28;;;;;;;24.46;64.24;99652.09;1734283;81;21055;-67
2021/07/04 05:51:06;;;;;;;12.40;8.35;;;;;;;24.48;64.11;99648.13;1734125;80;21110;-68
2021/07/04 05:53:32;;;;;;;8.20;6.30;;;;;;;24.53;63.73;99642.06;1732906;82;21566;-69
2021/07/04 05:55:59;;;;;;;9.13;6.62;;;;;;;24.57;63.83;99639.75;1733582;80;21123;-64
2021/07/04 05:58:26;;;;;;;8.50;7.00;;;;;;;24.58;62.87;99635.48;1717267;82;21126;-62
2021/07/04 06:00:52;;;;;;;9.73;6.55;;;;;;;24.57;63.12;99641.91;1718366;81;21075;-63
2021/07/04 06:03:19;;;;;;;7.95;5.87;;;;;;;24.56;63.21;99632.22;1738020;80;21062;-64
2021/07/04 06:05:47;;;;;;;8.70;5.95;;;;;;;24.61;63.37;99639.57;1708186;80;21098;-63
2021/07/04 06:08:14;;;;;;;7.85;5.97;;;;;;;24.68;63.16;99637.61;1736782;80;21059;-64
2021/07/04 06:10:44;;;;;;;7.22;5.90;;;;;;;24.74;62.89;99626.42;1727446;80;21673;-65
2021/07/04 06:13:11;;;;;;;9.88;6.05;;;;;;;24.80;62.46;99633.56;1734209;80;21059;-64
2021/07/04 06:15:38;;;;;;;7.87;5.92;;;;;;;24.84;62.19;99632.03;1732496;81;21134;-64
2021/07/04 06:18:05;;;;;;;8.73;6.03;;;;;;;24.83;62.03;99631.72;1728901;80;21070;-64
2021/07/04 06:20:31;;;;;;;8.83;6.00;;;;;;;24.84;62.65;99639.56;1729370;80;21074;-65
2021/07/04 06:22:58;;;;;;;9.38;6.87;;;;;;;24.90;62.38;99633.79;1734958;80;21067;-64
2021/07/04 06:25:24;;;;;;;9.58;6.65;;;;;;;24.99;62.64;99640.97;1735062;80;21101;-65
2021/07/04 06:27:51;;;;;;;8.58;6.62;;;;;;;25.07;62.28;99638.45;1731913;80;21617;-65
2021/07/04 06:30:18;;;;;;;10.82;7.15;;;;;;;25.11;62.25;99635.56;1731860;80;21114;-64
2021/07/04 06:32:45;;;;;;;12.18;7.35;;;;;;;25.13;62.02;99641.52;1732354;80;22508;-65
2021/07/04 06:35:12;;;;;;;9.40;7.55;;;;;;;25.16;61.84;99632.45;1723370;80;20996;-64
2021/07/04 06:37:41;;;;;;;10.30;8.18;;;;;;;25.18;61.82;99632.21;1737433;81;21051;-64
2021/07/04 06:40:08;;;;;;;9.98;8.05;;;;;;;25.16;62.30;99633.80;1729930;82;21101;-62
2021/07/04 06:42:34;;;;;;;8.35;6.37;;;;;;;25.19;61.70;99636.02;1726584;81;21609;-63
2021/07/04 06:45:04;;;;;;;10.93;7.70;;;;;;;25.22;61.67;99632.85;1735070;81;21376;-63
2021/07/04 06:47:31;;;;;;;10.48;8.18;;;;;;;25.25;61.90;99635.61;1728509;82;21328;-62
2021/07/04 06:49:58;;;;;;;11.12;7.70;;;;;;;25.30;61.99;99637.09;1729111;81;22111;-63
2021/07/04 06:52:24;;;;;;;11.88;9.10;;;;;;;25.32;61.17;99632.81;1732994;80;21099;-63
2021/07/04 06:54:52;;;;;;;11.43;7.62;;;;;;;25.36;61.11;99633.42;1712256;82;21041;-63
2021/07/04 06:57:27;;;;;;;10.40;7.62;;;;;;;25.39;61.13;99630.27;1732787;80;21157;-63
2021/07/04 07:00:12;;;;;;;11.83;8.35;;;;;;;25.43;60.82;99629.79;1728614;80;21090;-62
2021/07/04 07:02:39;;;;;;;11.68;8.78;;;;;;;25.48;60.31;99625.31;1732281;80;21082;-65
2021/07/04 07:05:07;;;;;;;11.00;8.78;;;;;;;25.54;60.46;99620.32;1728990;81;21121;-64
2021/07/04 07:07:34;;;;;;;11.15;9.05;;;;;;;25.60;60.51;99619.87;1732729;82;21562;-63
2021/07/04 07:10:05;;;;;;;10.40;8.13;;;;;;;25.66;60.05;99618.92;1733533;82;21059;-63
2021/07/04 07:12:31;;;;;;;9.80;7.60;;;;;;;25.69;58.70;99618.45;1721176;80;21561;-63
2021/07/04 07:14:59;;;;;;;10.43;7.97;;;;;;;25.73;58.41;99626.86;1740525;82;21085;-64
2021/07/04 07:17:27;;;;;;;11.88;8.45;;;;;;;25.76;58.51;99619.11;1735596;81;21066;-69
2021/07/04 07:19:55;;;;;;;13.32;9.43;;;;;;;25.80;59.22;99619.98;1737848;81;21133;-67
2021/07/04 07:22:23;;;;;;;13.20;9.83;;;;;;;25.84;59.55;99618.42;1740760;82;21058;-70
2021/07/04 07:26:33;;;;;;;11.38;8.68;;;;;;;26.04;59.27;99620.69;1782833;78;22742;-71
2021/07/04 07:29:00;;;;;;;12.68;9.75;;;;;;;26.05;59.38;99623.14;1746320;80;21937;-68
2021/07/04 07:31:27;;;;;;;11.65;8.95;;;;;;;26.14;59.28;99619.00;1686206;83;21651;-68
2021/07/04 07:33:53;;;;;;;13.60;8.93;;;;;;;26.25;59.42;99614.58;1683451;83;21113;-68
2021/07/04 07:36:21;;;;;;;12.63;9.93;;;;;;;26.35;58.89;99627.95;1680618;84;21126;-70
2021/07/04 07:38:48;;;;;;;13.00;10.03;;;;;;;26.36;58.77;99628.23;1649683;84;21561;-71
2021/07/04 07:41:14;;;;;;;13.28;10.43;;;;;;;26.39;58.78;99623.16;1680905;83;21600;-69
2021/07/04 07:43:43;;;;;;;13.35;10.23;;;;;;;26.43;58.43;99620.27;1649740;84;21067;-69
2021/07/04 07:46:10;;;;;;;10.60;9.08;;;;;;;26.50;58.49;99620.91;1649765;84;21686;-69
2021/07/04 07:48:38;;;;;;;12.95;10.70;;;;;;;26.58;58.11;99618.84;1677760;84;21592;-71
2021/07/04 07:51:06;;;;;;;14.95;11.45;;;;;;;26.70;58.00;99619.62;1680942;84;21107;-69
2021/07/04 07:53:33;;;;;;;16.02;11.78;;;;;;;26.82;58.18;99618.97;1692323;83;21069;-68
2021/07/04 07:55:59;;;;;;;11.65;10.03;;;;;;;26.91;58.05;99618.55;1673606;83;21255;-69
2021/07/04 07:58:26;;;;;;;13.50;10.80;;;;;;;26.99;57.92;99617.58;1696663;83;21670;-70
2021/07/04 08:00:55;;;;;;;13.28;10.30;;;;;;;27.06;57.85;99619.55;1691880;84;21537;-70
2021/07/04 08:03:21;;;;;;;12.23;10.63;;;;;;;27.10;57.29;99621.23;1689899;84;21639;-70
2021/07/04 08:05:48;;;;;;;11.00;9.33;;;;;;;27.17;56.92;99629.16;1690761;84;21073;-72
2021/07/04 08:08:14;;;;;;;12.05;10.75;;;;;;;27.19;56.72;99624.31;1689048;84;21149;-69
2021/07/04 08:10:40;;;;;;;11.75;10.05;;;;;;;27.18;57.01;99628.88;1694029;84;21077;-69
2021/07/04 08:13:07;;;;;;;12.85;8.35;;;;;;;27.17;56.61;99624.56;1693942;84;21081;-70
2021/07/04 08:15:34;;;;;;;10.20;8.90;;;;;;;27.17;56.02;99628.61;1691520;84;21560;-70
2021/07/04 08:18:00;;;;;;;11.93;8.78;;;;;;;27.17;55.10;99629.96;1686762;84;21066;-69
2021/07/04 08:20:28;;;;;;;12.28;9.43;;;;;;;27.18;55.25;99624.83;1687721;84;21147;-69
2021/07/04 08:22:55;;;;;;;10.08;7.92;;;;;;;27.24;55.61;99626.53;1692375;83;21069;-69
2021/07/04 08:25:21;;;;;;;12.43;8.58;;;;;;;27.29;54.57;99626.36;1682403;84;21561;-70
2021/07/04 08:27:47;;;;;;;12.33;8.30;;;;;;;27.29;54.76;99618.25;1728474;82;21024;-69
2021/07/04 08:30:16;;;;;;;9.63;7.67;;;;;;;27.32;54.74;99628.53;1725238;82;21075;-69
2021/07/04 08:32:43;;;;;;;9.03;7.30;;;;;;;27.36;55.26;99626.98;1726792;82;21834;-69
2021/07/04 08:35:11;;;;;;;9.63;8.35;;;;;;;27.45;54.55;99634.91;1696090;82;21050;-70
2021/07/04 08:37:37;;;;;;;9.15;7.30;;;;;;;27.51;54.37;99635.25;1709234;82;21083;-69
2021/07/04 08:40:05;;;;;;;9.25;6.80;;;;;;;27.56;53.33;99639.36;1739257;82;21055;-71
2021/07/04 08:42:32;;;;;;;8.30;6.92;;;;;;;27.61;53.92;99634.01;1720539;82;21557;-70
2021/07/04 08:44:58;;;;;;;9.93;8.20;;;;;;;27.66;53.31;99625.15;1732412;82;21211;-69
2021/07/04 08:47:25;;;;;;;9.55;7.28;;;;;;;27.74;53.13;99626.56;1726238;82;21252;-68
2021/07/04 08:49:52;;;;;;;8.68;7.78;;;;;;;27.78;52.67;99624.45;1715650;82;21034;-70
2021/07/04 08:52:20;;;;;;;10.20;7.58;;;;;;;27.83;52.54;99627.75;1720098;82;21553;-70
2021/07/04 08:54:46;;;;;;;8.78;7.45;;;;;;;27.91;52.24;99629.99;1725856;82;21081;-70
2021/07/04 08:57:15;;;;;;;9.90;7.58;;;;;;;27.97;52.40;99633.58;1715289;82;22373;-69
2021/07/04 08:59:45;;;;;;;10.08;7.97;;;;;;;28.02;52.08;99635.52;1694751;82;21079;-70
2021/07/04 09:02:14;;;;;;;8.80;7.87;;;;;;;28.05;51.86;99633.11;1693651;82;21058;-70
2021/07/04 09:05:06;;;;;;;9.65;8.33;;;;;;;28.07;52.02;99629.61;1699127;82;21668;-68
2021/07/04 09:07:33;;;;;;;9.23;7.85;;;;;;;28.11;52.24;99624.50;1730359;82;21694;-71
2021/07/04 09:10:04;;;;;;;9.85;7.58;;;;;;;28.11;52.14;99628.56;1730488;82;21551;-69
2021/07/04 09:12:39;;;;;;;10.72;8.03;;;;;;;28.09;51.80;99626.14;1729645;82;21358;-70
2021/07/04 09:15:19;;;;;;;8.30;7.22;;;;;;;28.09;51.96;99628.01;1727776;82;21039;-70
2021/07/04 09:17:49;;;;;;;11.83;7.40;;;;;;;28.08;51.31;99625.84;1726923;82;21041;-69
2021/07/04 09:20:23;;;;;;;9.80;7.70;;;;;;;28.05;51.10;99632.31;1692644;82;21556;-71
2021/07/04 09:22:54;;;;;;;8.68;7.55;;;;;;;28.06;51.50;99625.81;1723057;82;21101;-70
2021/07/04 09:25:27;;;;;;;8.20;6.83;;;;;;;28.12;51.37;99627.50;1703482;82;21031;-70
2021/07/04 09:28:15;;;;;;;9.18;7.53;;;;;;;28.14;50.92;99623.99;1703502;82;21707;-71
2021/07/04 09:30:54;;;;;;;8.78;7.28;;;;;;;28.20;51.33;99622.97;1728064;82;21587;-69
2021/07/04 09:33:31;;;;;;;10.78;7.53;;;;;;;28.31;51.43;99619.80;1729429;82;21023;-70
2021/07/04 09:36:05;;;;;;;9.95;6.97;;;;;;;28.38;51.09;99612.81;1693576;82;21082;-71
2021/07/04 09:38:38;;;;;;;9.10;7.22;;;;;;;28.43;51.06;99613.69;1711401;82;21085;-71
2021/07/04 09:41:07;;;;;;;11.12;8.03;;;;;;;28.48;50.31;99606.95;1728233;82;21046;-70
2021/07/04 09:43:34;;;;;;;9.15;7.55;;;;;;;28.54;49.92;99608.59;1696003;82;21556;-70
2021/07/04 09:46:03;;;;;;;8.95;6.92;;;;;;;28.60;49.76;99604.63;1726851;82;21117;-70
2021/07/04 09:48:42;;;;;;;7.90;6.70;;;;;;;28.67;49.88;99603.30;1722977;82;21613;-69
2021/07/04 09:51:24;;;;;;;8.70;6.50;;;;;;;28.69;49.85;99603.86;1702881;82;21110;-73
2021/07/04 09:53:59;;;;;;;9.15;6.08;;;;;;;28.72;48.98;99605.23;1694773;82;21035;-73
2021/07/04 09:56:30;;;;;;;9.30;6.85;;;;;;;28.74;49.51;99599.56;1724916;82;21043;-70
2021/07/04 09:58:59;;;;;;;9.83;7.30;;;;;;;28.77;48.92;99601.75;1723326;82;21086;-68
2021/07/04 10:01:50;;;;;;;8.08;6.20;;;;;;;28.80;48.86;99597.14;1725655;80;21345;-68
2021/07/04 10:04:28;;;;;;;9.15;6.35;;;;;;;28.81;48.79;99596.08;1718168;80;21110;-75
2021/07/04 10:06:56;;;;;;;7.15;5.90;;;;;;;28.93;48.74;99602.08;1723845;82;21441;-70
2021/07/04 10:09:25;;;;;;;8.08;6.25;;;;;;;29.06;48.99;99594.02;1727978;82;21086;-72
2021/07/04 10:11:52;;;;;;;7.75;6.33;;;;;;;29.21;48.62;99592.75;1735103;82;21580;-69
2021/07/04 10:14:19;;;;;;;7.42;6.60;;;;;;;29.32;47.94;99601.75;1722265;82;21027;-72
2021/07/04 10:16:48;;;;;;;8.98;7.10;;;;;;;29.36;47.62;99598.77;1733848;82;21055;-73
2021/07/04 10:19:26;;;;;;;9.80;7.12;;;;;;;29.43;47.75;99601.23;1732313;82;21043;-74
2021/07/04 10:22:02;;;;;;;8.10;6.78;;;;;;;29.51;46.91;99598.00;1733627;82;21087;-71
2021/07/04 10:24:28;;;;;;;;;;;;;;;29.53;48.08;99597.19;1732172;82;21042;-70
2021/07/04 10:26:56;;;;;;;7.72;6.12;;;;;;;29.57;48.04;99586.09;1734031;80;21099;-70
2021/07/04 10:29:26;;;;;;;8.88;6.60;;;;;;;29.61;48.32;99586.38;1723563;82;21034;-74
2021/07/04 10:31:53;;;;;;;8.55;6.15;;;;;;;29.72;48.95;99583.13;1709187;82;21094;-70
2021/07/04 10:34:25;;;;;;;9.20;7.00;;;;;;;29.87;48.54;99579.64;1747123;82;21030;-71
2021/07/04 10:37:00;;;;;;;8.60;6.42;;;;;;;30.01;47.93;99578.03;1729465;82;21085;-72
2021/07/04 10:39:28;;;;;;;9.85;6.40;;;;;;;30.06;46.56;99571.77;1729746;82;21807;-72
2021/07/04 10:42:01;;;;;;;7.47;5.65;;;;;;;30.00;46.29;99572.33;1729347;82;21086;-69
2021/07/04 10:44:49;;;;;;;8.00;5.85;;;;;;;29.96;45.99;99567.98;1735798;82;21089;-74
2021/07/04 10:47:25;;;;;;;8.20;6.85;;;;;;;30.00;46.39;99572.33;1704359;82;21071;-71
2021/07/04 10:50:09;;;;;;;6.95;5.47;;;;;;;30.12;47.62;99567.42;1739052;82;21118;-70
2021/07/04 10:52:43;;;;;;;8.18;6.22;;;;;;;30.29;47.30;99567.13;1744038;82;21107;-71
2021/07/04 10:55:12;;;;;;;8.83;6.50;;;;;;;30.44;45.83;99569.59;1731620;82;21039;-72
2021/07/04 10:57:55;;;;;;;8.78;6.65;;;;;;;30.52;45.37;99563.06;1726967;82;21038;-71
2021/07/04 11:00:35;;;;;;;8.48;6.67;;;;;;;30.49;44.35;99564.96;1738486;82;21076;-71
2021/07/04 11:03:09;;;;;;;7.95;6.12;;;;;;;30.44;44.85;99561.45;1725322;82;21038;-71
2021/07/04 11:05:41;;;;;;;7.80;6.75;;;;;;;30.47;44.90;99565.78;1738532;82;21431;-70
2021/07/04 11:08:28;;;;;;;8.43;6.92;;;;;;;30.51;45.12;99554.66;1729875;82;20943;-72
2021/07/04 11:10:59;;;;;;;7.97;6.20;;;;;;;30.51;45.15;99553.30;1730288;82;20948;-71
2021/07/04 11:13:38;;;;;;;9.20;5.85;;;;;;;30.55;45.58;99550.85;1705891;82;21046;-69
2021/07/04 11:16:08;;;;;;;8.08;4.92;;;;;;;30.66;45.52;99548.35;1724765;82;22076;-71
2021/07/04 11:18:51;;;;;;;8.15;5.22;;;;;;;30.83;45.68;99543.14;1707708;82;21868;-71
2021/07/04 11:21:51;;;;;;;6.75;5.50;;;;;;;30.96;43.84;99543.93;1730954;80;21082;-69
2021/07/04 11:24:26;;;;;;;7.05;5.65;;;;;;;31.06;43.84;99546.59;1730453;80;21558;-69
2021/07/04 11:27:25;;;;;;;7.30;5.03;;;;;;;31.15;43.12;99540.02;1728037;81;21013;-69
2021/07/04 11:30:23;;;;;;;6.60;5.30;;;;;;;31.23;43.71;99533.20;1737687;81;21069;-70
2021/07/04 11:32:49;;;;;;;7.35;5.62;;;;;;;31.32;43.20;99537.48;1735863;80;21134;-71
2021/07/04 11:35:16;;;;;;;7.08;5.80;;;;;;;31.42;43.46;99534.70;1720208;81;22033;-71
2021/07/04 11:37:42;;;;;;;9.23;5.92;;;;;;;31.51;42.60;99535.77;1740674;81;21078;-70
2021/07/04 11:40:10;;;;;;;6.65;5.67;;;;;;;31.54;42.93;99532.49;1739594;81;21105;-71
2021/07/04 11:42:37;;;;;;;7.92;5.75;;;;;;;31.61;42.80;99527.53;1707500;81;21051;-69
2021/07/04 11:45:16;;;;;;;8.25;5.80;;;;;;;31.61;42.30;99530.26;1711617;81;21080;-69